Aviation Digital Data Service (ADDS)

Output produced by METARs form (0750 UTC 25 April 2019)
found at http://www.aviationweather.gov/metar/data/
 
TAF FCPP 250500Z 2506/2606 18007KT 9000 SCT012 BKN022 
     BECMG 2510/2514 SCT013 BKN023 FEW030CB 
     BECMG 2520/2522 SCT010 BKN020